sensor_id;sensor_type;location;lat;lon;timestamp;temperature;humidity
22379;DHT22;11357;49.990;7.370;2023-11-19T00:00:27;12.80;98.10
22379;DHT22;11357;49.990;7.370;2023-11-19T00:02:53;12.80;98.10
22379;DHT22;11357;49.990;7.370;2023-11-19T00:05:19;12.90;98.10
22379;DHT22;11357;49.990;7.370;2023-11-19T00:07:45;12.90;98.10
22379;DHT22;11357;49.990;7.370;2023-11-19T00:10:11;12.90;98.10
22379;DHT22;11357;49.990;7.370;2023-11-19T00:12:42;13.00;98.10
22379;DHT22;11357;49.990;7.370;2023-11-19T00:15:08;13.00;98.20
22379;DHT22;11357;49.990;7.370;2023-11-19T00:17:37;13.00;98.10
22379;DHT22;11357;49.990;7.370;2023-11-19T00:20:05;13.00;98.20
22379;DHT22;11357;49.990;7.370;2023-11-19T00:22:31;13.00;98.20
22379;DHT22;11357;49.990;7.370;2023-11-19T00:24:57;13.00;98.20
22379;DHT22;11357;49.990;7.370;2023-11-19T00:27:22;13.10;98.20
22379;DHT22;11357;49.990;7.370;2023-11-19T00:29:48;13.10;98.20
22379;DHT22;11357;49.990;7.370;2023-11-19T00:32:14;13.10;98.10
22379;DHT22;11357;49.990;7.370;2023-11-19T00:34:40;13.10;98.20
22379;DHT22;11357;49.990;7.370;2023-11-19T00:37:08;13.10;98.20
22379;DHT22;11357;49.990;7.370;2023-11-19T00:39:34;13.20;98.10
22379;DHT22;11357;49.990;7.370;2023-11-19T00:42:00;13.20;98.10
22379;DHT22;11357;49.990;7.370;2023-11-19T00:44:25;13.20;98.10
22379;DHT22;11357;49.990;7.370;2023-11-19T00:46:51;13.20;98.10
22379;DHT22;11357;49.990;7.370;2023-11-19T00:49:16;13.20;98.10
22379;DHT22;11357;49.990;7.370;2023-11-19T00:51:42;13.30;98.10
22379;DHT22;11357;49.990;7.370;2023-11-19T00:54:08;13.30;98.00
22379;DHT22;11357;49.990;7.370;2023-11-19T00:56:33;13.30;98.00
22379;DHT22;11357;49.990;7.370;2023-11-19T00:58:59;13.30;97.90
22379;DHT22;11357;49.990;7.370;2023-11-19T01:01:25;13.30;97.90
22379;DHT22;11357;49.990;7.370;2023-11-19T01:03:51;13.30;97.90
22379;DHT22;11357;49.990;7.370;2023-11-19T01:06:30;13.30;98.00
22379;DHT22;11357;49.990;7.370;2023-11-19T01:08:56;13.30;98.10
22379;DHT22;11357;49.990;7.370;2023-11-19T01:11:25;13.30;98.00
22379;DHT22;11357;49.990;7.370;2023-11-19T01:13:51;13.30;98.00
22379;DHT22;11357;49.990;7.370;2023-11-19T01:16:18;13.30;98.10
22379;DHT22;11357;49.990;7.370;2023-11-19T01:18:44;13.30;98.10
22379;DHT22;11357;49.990;7.370;2023-11-19T01:21:12;13.30;98.10
22379;DHT22;11357;49.990;7.370;2023-11-19T01:23:37;13.20;98.20
22379;DHT22;11357;49.990;7.370;2023-11-19T01:26:03;13.30;98.30
22379;DHT22;11357;49.990;7.370;2023-11-19T01:28:31;13.30;98.30
22379;DHT22;11357;49.990;7.370;2023-11-19T01:30:56;13.30;98.30
22379;DHT22;11357;49.990;7.370;2023-11-19T01:33:22;13.40;98.30
22379;DHT22;11357;49.990;7.370;2023-11-19T01:35:47;13.40;98.30
22379;DHT22;11357;49.990;7.370;2023-11-19T01:38:13;13.40;98.30
22379;DHT22;11357;49.990;7.370;2023-11-19T01:40:39;13.40;98.30
22379;DHT22;11357;49.990;7.370;2023-11-19T01:43:04;13.40;98.30
22379;DHT22;11357;49.990;7.370;2023-11-19T01:45:31;13.40;98.40
22379;DHT22;11357;49.990;7.370;2023-11-19T01:47:59;13.40;98.40
22379;DHT22;11357;49.990;7.370;2023-11-19T01:50:26;13.40;98.40
22379;DHT22;11357;49.990;7.370;2023-11-19T01:52:55;13.40;98.40
22379;DHT22;11357;49.990;7.370;2023-11-19T01:55:27;13.50;98.50
22379;DHT22;11357;49.990;7.370;2023-11-19T01:57:59;13.50;98.40
22379;DHT22;11357;49.990;7.370;2023-11-19T02:00:27;13.50;98.50
22379;DHT22;11357;49.990;7.370;2023-11-19T02:02:52;13.50;98.50
22379;DHT22;11357;49.990;7.370;2023-11-19T02:05:20;13.50;98.50
22379;DHT22;11357;49.990;7.370;2023-11-19T02:07:46;13.60;98.50
22379;DHT22;11357;49.990;7.370;2023-11-19T02:10:12;13.60;98.50
22379;DHT22;11357;49.990;7.370;2023-11-19T02:12:43;13.60;98.60
22379;DHT22;11357;49.990;7.370;2023-11-19T02:15:09;13.60;98.60
22379;DHT22;11357;49.990;7.370;2023-11-19T02:17:35;13.60;98.60
22379;DHT22;11357;49.990;7.370;2023-11-19T02:20:04;13.60;98.60
22379;DHT22;11357;49.990;7.370;2023-11-19T02:22:34;13.60;98.60
22379;DHT22;11357;49.990;7.370;2023-11-19T02:25:04;13.70;98.60
22379;DHT22;11357;49.990;7.370;2023-11-19T02:27:53;13.70;98.60
22379;DHT22;11357;49.990;7.370;2023-11-19T02:30:22;13.70;98.40
22379;DHT22;11357;49.990;7.370;2023-11-19T02:32:58;13.70;98.60
22379;DHT22;11357;49.990;7.370;2023-11-19T02:35:26;13.80;98.60
22379;DHT22;11357;49.990;7.370;2023-11-19T02:37:52;13.80;98.60
22379;DHT22;11357;49.990;7.370;2023-11-19T02:40:18;13.80;98.60
22379;DHT22;11357;49.990;7.370;2023-11-19T02:42:43;13.80;98.70
22379;DHT22;11357;49.990;7.370;2023-11-19T02:45:09;13.80;98.70
22379;DHT22;11357;49.990;7.370;2023-11-19T02:47:41;13.80;98.70
22379;DHT22;11357;49.990;7.370;2023-11-19T02:50:12;13.80;98.70
22379;DHT22;11357;49.990;7.370;2023-11-19T02:52:42;13.80;98.80
22379;DHT22;11357;49.990;7.370;2023-11-19T02:55:08;13.80;98.80
22379;DHT22;11357;49.990;7.370;2023-11-19T02:57:41;13.90;98.90
22379;DHT22;11357;49.990;7.370;2023-11-19T03:00:17;13.90;98.90
22379;DHT22;11357;49.990;7.370;2023-11-19T03:02:44;13.90;98.90
22379;DHT22;11357;49.990;7.370;2023-11-19T03:05:12;13.90;98.90
22379;DHT22;11357;49.990;7.370;2023-11-19T03:07:43;13.90;98.90
22379;DHT22;11357;49.990;7.370;2023-11-19T03:10:10;13.90;98.90
22379;DHT22;11357;49.990;7.370;2023-11-19T03:12:42;14.00;99.00
22379;DHT22;11357;49.990;7.370;2023-11-19T03:15:08;14.00;99.00
22379;DHT22;11357;49.990;7.370;2023-11-19T03:17:42;14.00;99.00
22379;DHT22;11357;49.990;7.370;2023-11-19T03:20:11;14.00;99.00
22379;DHT22;11357;49.990;7.370;2023-11-19T03:22:41;14.00;99.00
22379;DHT22;11357;49.990;7.370;2023-11-19T03:25:09;14.10;99.00
22379;DHT22;11357;49.990;7.370;2023-11-19T03:27:39;14.10;99.00
22379;DHT22;11357;49.990;7.370;2023-11-19T03:30:07;14.10;99.00
22379;DHT22;11357;49.990;7.370;2023-11-19T03:32:35;14.10;99.00
22379;DHT22;11357;49.990;7.370;2023-11-19T03:35:04;14.10;99.10
22379;DHT22;11357;49.990;7.370;2023-11-19T03:37:32;14.10;99.20
22379;DHT22;11357;49.990;7.370;2023-11-19T03:39:58;14.20;99.20
22379;DHT22;11357;49.990;7.370;2023-11-19T03:42:28;14.20;99.20
22379;DHT22;11357;49.990;7.370;2023-11-19T03:44:53;14.10;99.30
22379;DHT22;11357;49.990;7.370;2023-11-19T03:47:19;14.10;99.30
22379;DHT22;11357;49.990;7.370;2023-11-19T03:49:52;14.20;99.40
22379;DHT22;11357;49.990;7.370;2023-11-19T03:52:18;14.20;99.50
22379;DHT22;11357;49.990;7.370;2023-11-19T03:54:44;14.20;99.40
22379;DHT22;11357;49.990;7.370;2023-11-19T03:57:11;14.20;99.40
22379;DHT22;11357;49.990;7.370;2023-11-19T03:59:37;14.20;99.40
22379;DHT22;11357;49.990;7.370;2023-11-19T04:02:03;14.30;99.50
22379;DHT22;11357;49.990;7.370;2023-11-19T04:04:29;14.30;99.50
22379;DHT22;11357;49.990;7.370;2023-11-19T04:06:55;14.20;99.60
22379;DHT22;11357;49.990;7.370;2023-11-19T04:09:21;14.30;99.60
22379;DHT22;11357;49.990;7.370;2023-11-19T04:11:47;14.30;99.70
22379;DHT22;11357;49.990;7.370;2023-11-19T04:14:13;14.30;99.80
22379;DHT22;11357;49.990;7.370;2023-11-19T04:16:39;14.30;99.80
22379;DHT22;11357;49.990;7.370;2023-11-19T04:19:05;14.40;99.90
22379;DHT22;11357;49.990;7.370;2023-11-19T04:21:32;14.40;99.80
22379;DHT22;11357;49.990;7.370;2023-11-19T04:23:58;14.40;99.80
22379;DHT22;11357;49.990;7.370;2023-11-19T04:26:23;14.40;99.80
22379;DHT22;11357;49.990;7.370;2023-11-19T04:28:49;14.50;99.70
22379;DHT22;11357;49.990;7.370;2023-11-19T04:31:18;14.50;99.70
22379;DHT22;11357;49.990;7.370;2023-11-19T04:33:44;14.50;99.70
22379;DHT22;11357;49.990;7.370;2023-11-19T04:36:10;14.60;99.60
22379;DHT22;11357;49.990;7.370;2023-11-19T04:38:36;14.50;99.70
22379;DHT22;11357;49.990;7.370;2023-11-19T04:41:04;14.50;99.80
22379;DHT22;11357;49.990;7.370;2023-11-19T04:43:31;14.60;99.80
22379;DHT22;11357;49.990;7.370;2023-11-19T04:45:57;14.60;99.80
22379;DHT22;11357;49.990;7.370;2023-11-19T04:48:23;14.60;99.80
22379;DHT22;11357;49.990;7.370;2023-11-19T04:50:49;14.60;99.80
22379;DHT22;11357;49.990;7.370;2023-11-19T04:53:16;14.60;99.70
22379;DHT22;11357;49.990;7.370;2023-11-19T04:55:42;14.60;99.70
22379;DHT22;11357;49.990;7.370;2023-11-19T04:58:08;14.70;99.80
22379;DHT22;11357;49.990;7.370;2023-11-19T05:00:34;14.60;99.70
22379;DHT22;11357;49.990;7.370;2023-11-19T05:03:00;14.60;99.80
22379;DHT22;11357;49.990;7.370;2023-11-19T05:05:25;14.60;99.90
22379;DHT22;11357;49.990;7.370;2023-11-19T05:07:51;14.70;99.90
22379;DHT22;11357;49.990;7.370;2023-11-19T05:10:17;14.70;99.90
22379;DHT22;11357;49.990;7.370;2023-11-19T05:12:42;14.70;99.90
22379;DHT22;11357;49.990;7.370;2023-11-19T05:15:08;14.70;99.90
22379;DHT22;11357;49.990;7.370;2023-11-19T05:17:34;14.80;99.90
22379;DHT22;11357;49.990;7.370;2023-11-19T05:20:00;14.80;99.80
22379;DHT22;11357;49.990;7.370;2023-11-19T05:22:26;14.80;99.80
22379;DHT22;11357;49.990;7.370;2023-11-19T05:24:52;14.80;99.80
22379;DHT22;11357;49.990;7.370;2023-11-19T05:27:17;14.80;99.80
22379;DHT22;11357;49.990;7.370;2023-11-19T05:29:43;14.80;99.90
22379;DHT22;11357;49.990;7.370;2023-11-19T05:32:09;14.80;99.90
22379;DHT22;11357;49.990;7.370;2023-11-19T05:34:35;14.80;99.80
22379;DHT22;11357;49.990;7.370;2023-11-19T05:37:01;14.90;99.80
22379;DHT22;11357;49.990;7.370;2023-11-19T05:39:28;14.90;99.80
22379;DHT22;11357;49.990;7.370;2023-11-19T05:41:53;14.90;99.80
22379;DHT22;11357;49.990;7.370;2023-11-19T05:44:19;14.90;99.70
22379;DHT22;11357;49.990;7.370;2023-11-19T05:46:45;14.90;99.70
22379;DHT22;11357;49.990;7.370;2023-11-19T05:49:11;14.90;99.70
22379;DHT22;11357;49.990;7.370;2023-11-19T05:51:38;14.90;99.80
22379;DHT22;11357;49.990;7.370;2023-11-19T05:54:09;14.90;99.90
22379;DHT22;11357;49.990;7.370;2023-11-19T05:56:35;14.90;99.90
22379;DHT22;11357;49.990;7.370;2023-11-19T05:59:01;14.90;99.90
22379;DHT22;11357;49.990;7.370;2023-11-19T06:01:29;14.80;99.90
22379;DHT22;11357;49.990;7.370;2023-11-19T06:03:55;14.80;99.90
22379;DHT22;11357;49.990;7.370;2023-11-19T06:06:21;14.80;99.90
22379;DHT22;11357;49.990;7.370;2023-11-19T06:08:46;14.90;99.90
22379;DHT22;11357;49.990;7.370;2023-11-19T06:11:12;14.90;99.90
22379;DHT22;11357;49.990;7.370;2023-11-19T06:13:44;14.90;99.90
22379;DHT22;11357;49.990;7.370;2023-11-19T06:16:09;14.80;99.90
22379;DHT22;11357;49.990;7.370;2023-11-19T06:18:36;14.80;99.90
22379;DHT22;11357;49.990;7.370;2023-11-19T06:21:02;14.80;99.90
22379;DHT22;11357;49.990;7.370;2023-11-19T06:23:28;14.80;99.90
22379;DHT22;11357;49.990;7.370;2023-11-19T06:25:53;14.90;99.90
22379;DHT22;11357;49.990;7.370;2023-11-19T06:28:19;14.80;99.90
22379;DHT22;11357;49.990;7.370;2023-11-19T06:30:44;14.80;99.90
22379;DHT22;11357;49.990;7.370;2023-11-19T06:33:13;14.80;99.90
22379;DHT22;11357;49.990;7.370;2023-11-19T06:35:38;14.80;99.90
22379;DHT22;11357;49.990;7.370;2023-11-19T06:38:04;14.70;99.90
22379;DHT22;11357;49.990;7.370;2023-11-19T06:40:31;14.70;99.90
22379;DHT22;11357;49.990;7.370;2023-11-19T06:42:57;14.70;99.90
22379;DHT22;11357;49.990;7.370;2023-11-19T06:45:22;14.70;99.90
22379;DHT22;11357;49.990;7.370;2023-11-19T06:47:48;14.70;99.90
22379;DHT22;11357;49.990;7.370;2023-11-19T06:50:14;14.70;99.90
22379;DHT22;11357;49.990;7.370;2023-11-19T06:52:40;14.70;99.90
22379;DHT22;11357;49.990;7.370;2023-11-19T06:55:06;14.70;99.90
22379;DHT22;11357;49.990;7.370;2023-11-19T06:57:32;14.70;99.90
22379;DHT22;11357;49.990;7.370;2023-11-19T06:59:58;14.70;99.90
22379;DHT22;11357;49.990;7.370;2023-11-19T07:02:24;14.70;99.80
22379;DHT22;11357;49.990;7.370;2023-11-19T07:04:51;14.70;99.70
22379;DHT22;11357;49.990;7.370;2023-11-19T07:07:16;14.70;99.70
22379;DHT22;11357;49.990;7.370;2023-11-19T07:09:42;14.70;99.60
22379;DHT22;11357;49.990;7.370;2023-11-19T07:12:08;14.70;99.60
22379;DHT22;11357;49.990;7.370;2023-11-19T07:14:34;14.60;99.50
22379;DHT22;11357;49.990;7.370;2023-11-19T07:17:00;14.60;99.50
22379;DHT22;11357;49.990;7.370;2023-11-19T07:19:26;14.60;99.50
22379;DHT22;11357;49.990;7.370;2023-11-19T07:21:52;14.60;99.40
22379;DHT22;11357;49.990;7.370;2023-11-19T07:24:20;14.60;99.40
22379;DHT22;11357;49.990;7.370;2023-11-19T07:26:47;14.60;99.50
22379;DHT22;11357;49.990;7.370;2023-11-19T07:29:14;14.60;99.30
22379;DHT22;11357;49.990;7.370;2023-11-19T07:31:44;14.60;99.20
22379;DHT22;11357;49.990;7.370;2023-11-19T07:34:10;14.70;99.10
22379;DHT22;11357;49.990;7.370;2023-11-19T07:36:37;14.70;99.00
22379;DHT22;11357;49.990;7.370;2023-11-19T07:39:04;14.70;98.90
22379;DHT22;11357;49.990;7.370;2023-11-19T07:41:33;14.70;98.80
22379;DHT22;11357;49.990;7.370;2023-11-19T07:43:58;14.80;98.80
22379;DHT22;11357;49.990;7.370;2023-11-19T07:46:24;14.80;98.70
22379;DHT22;11357;49.990;7.370;2023-11-19T07:48:50;14.90;98.60
22379;DHT22;11357;49.990;7.370;2023-11-19T07:51:16;14.90;98.50
22379;DHT22;11357;49.990;7.370;2023-11-19T07:53:42;14.90;98.50
22379;DHT22;11357;49.990;7.370;2023-11-19T07:56:08;15.00;98.40
22379;DHT22;11357;49.990;7.370;2023-11-19T07:58:34;15.00;98.30
22379;DHT22;11357;49.990;7.370;2023-11-19T08:01:00;15.00;98.20
22379;DHT22;11357;49.990;7.370;2023-11-19T08:03:26;15.10;98.20
22379;DHT22;11357;49.990;7.370;2023-11-19T08:05:51;15.10;98.10
22379;DHT22;11357;49.990;7.370;2023-11-19T08:08:17;15.20;98.00
22379;DHT22;11357;49.990;7.370;2023-11-19T08:10:43;15.30;98.00
22379;DHT22;11357;49.990;7.370;2023-11-19T08:13:13;15.40;97.80
22379;DHT22;11357;49.990;7.370;2023-11-19T08:15:38;15.50;97.60
22379;DHT22;11357;49.990;7.370;2023-11-19T08:18:05;15.50;97.40
22379;DHT22;11357;49.990;7.370;2023-11-19T08:20:32;15.60;97.20
22379;DHT22;11357;49.990;7.370;2023-11-19T08:22:58;15.60;97.10
22379;DHT22;11357;49.990;7.370;2023-11-19T08:25:24;15.60;96.90
22379;DHT22;11357;49.990;7.370;2023-11-19T08:27:49;15.50;96.70
22379;DHT22;11357;49.990;7.370;2023-11-19T08:30:15;15.50;96.60
22379;DHT22;11357;49.990;7.370;2023-11-19T08:32:41;15.50;96.50
22379;DHT22;11357;49.990;7.370;2023-11-19T08:35:07;15.50;96.00
22379;DHT22;11357;49.990;7.370;2023-11-19T08:37:32;15.50;95.80
22379;DHT22;11357;49.990;7.370;2023-11-19T08:39:58;15.50;95.70
22379;DHT22;11357;49.990;7.370;2023-11-19T08:42:24;15.50;95.50
22379;DHT22;11357;49.990;7.370;2023-11-19T08:44:50;15.40;95.20
22379;DHT22;11357;49.990;7.370;2023-11-19T08:47:16;15.40;95.20
22379;DHT22;11357;49.990;7.370;2023-11-19T08:49:45;15.50;95.10
22379;DHT22;11357;49.990;7.370;2023-11-19T08:52:11;15.60;94.80
22379;DHT22;11357;49.990;7.370;2023-11-19T08:54:37;15.70;94.70
22379;DHT22;11357;49.990;7.370;2023-11-19T08:57:03;15.80;94.60
22379;DHT22;11357;49.990;7.370;2023-11-19T08:59:30;15.90;94.50
22379;DHT22;11357;49.990;7.370;2023-11-19T09:01:56;16.00;94.30
22379;DHT22;11357;49.990;7.370;2023-11-19T09:04:21;16.00;94.00
22379;DHT22;11357;49.990;7.370;2023-11-19T09:06:50;16.00;94.00
22379;DHT22;11357;49.990;7.370;2023-11-19T09:09:15;16.10;93.90
22379;DHT22;11357;49.990;7.370;2023-11-19T09:11:41;16.10;93.70
22379;DHT22;11357;49.990;7.370;2023-11-19T09:14:07;16.10;93.60
22379;DHT22;11357;49.990;7.370;2023-11-19T09:16:33;16.20;93.60
22379;DHT22;11357;49.990;7.370;2023-11-19T09:18:59;16.30;93.50
22379;DHT22;11357;49.990;7.370;2023-11-19T09:21:28;16.40;93.30
22379;DHT22;11357;49.990;7.370;2023-11-19T09:23:56;16.50;93.10
22379;DHT22;11357;49.990;7.370;2023-11-19T09:26:22;16.60;93.00
22379;DHT22;11357;49.990;7.370;2023-11-19T09:28:48;16.70;92.90
22379;DHT22;11357;49.990;7.370;2023-11-19T09:31:17;16.80;92.70
22379;DHT22;11357;49.990;7.370;2023-11-19T09:33:44;16.80;92.40
22379;DHT22;11357;49.990;7.370;2023-11-19T09:36:12;16.80;92.50
22379;DHT22;11357;49.990;7.370;2023-11-19T09:38:43;16.90;92.20
22379;DHT22;11357;49.990;7.370;2023-11-19T09:41:09;16.90;92.00
22379;DHT22;11357;49.990;7.370;2023-11-19T09:43:37;16.90;92.00
22379;DHT22;11357;49.990;7.370;2023-11-19T09:46:06;16.80;92.00
22379;DHT22;11357;49.990;7.370;2023-11-19T09:48:33;16.70;91.80
22379;DHT22;11357;49.990;7.370;2023-11-19T09:51:00;16.60;91.90
22379;DHT22;11357;49.990;7.370;2023-11-19T09:53:26;16.50;91.90
22379;DHT22;11357;49.990;7.370;2023-11-19T09:55:53;16.50;91.80
22379;DHT22;11357;49.990;7.370;2023-11-19T09:58:19;16.60;91.80
22379;DHT22;11357;49.990;7.370;2023-11-19T10:00:44;16.70;91.80
22379;DHT22;11357;49.990;7.370;2023-11-19T10:03:11;16.90;91.50
22379;DHT22;11357;49.990;7.370;2023-11-19T10:05:38;17.00;91.40
22379;DHT22;11357;49.990;7.370;2023-11-19T10:08:05;17.10;91.20
22379;DHT22;11357;49.990;7.370;2023-11-19T10:10:31;17.10;91.20
22379;DHT22;11357;49.990;7.370;2023-11-19T10:12:56;16.90;91.00
22379;DHT22;11357;49.990;7.370;2023-11-19T10:15:24;16.80;91.00
22379;DHT22;11357;49.990;7.370;2023-11-19T10:17:50;16.70;91.00
22379;DHT22;11357;49.990;7.370;2023-11-19T10:20:16;16.50;90.90
22379;DHT22;11357;49.990;7.370;2023-11-19T10:22:42;16.40;91.00
22379;DHT22;11357;49.990;7.370;2023-11-19T10:25:26;16.30;91.10
22379;DHT22;11357;49.990;7.370;2023-11-19T10:27:53;16.10;91.20
22379;DHT22;11357;49.990;7.370;2023-11-19T10:30:26;16.10;91.30
22379;DHT22;11357;49.990;7.370;2023-11-19T10:33:09;16.10;91.30
22379;DHT22;11357;49.990;7.370;2023-11-19T10:35:55;16.00;91.30
22379;DHT22;11357;49.990;7.370;2023-11-19T10:38:25;16.00;91.50
22379;DHT22;11357;49.990;7.370;2023-11-19T10:40:52;16.10;91.40
22379;DHT22;11357;49.990;7.370;2023-11-19T10:43:22;16.20;91.50
22379;DHT22;11357;49.990;7.370;2023-11-19T10:45:51;16.20;91.40
22379;DHT22;11357;49.990;7.370;2023-11-19T10:48:17;16.30;91.40
22379;DHT22;11357;49.990;7.370;2023-11-19T10:50:44;16.40;91.40
22379;DHT22;11357;49.990;7.370;2023-11-19T10:53:12;16.70;91.30
22379;DHT22;11357;49.990;7.370;2023-11-19T10:55:39;16.80;91.00
22379;DHT22;11357;49.990;7.370;2023-11-19T10:58:09;16.80;90.90
22379;DHT22;11357;49.990;7.370;2023-11-19T11:00:44;17.10;90.80
22379;DHT22;11357;49.990;7.370;2023-11-19T11:05:42;17.20;90.50
22379;DHT22;11357;49.990;7.370;2023-11-19T11:08:08;17.20;90.40
22379;DHT22;11357;49.990;7.370;2023-11-19T11:10:39;17.10;90.10
22379;DHT22;11357;49.990;7.370;2023-11-19T11:13:05;16.90;90.10
22379;DHT22;11357;49.990;7.370;2023-11-19T11:15:31;16.80;90.10
22379;DHT22;11357;49.990;7.370;2023-11-19T11:18:00;16.70;90.10
22379;DHT22;11357;49.990;7.370;2023-11-19T11:20:31;16.50;90.00
22379;DHT22;11357;49.990;7.370;2023-11-19T11:29:40;16.10;89.90
22379;DHT22;11357;49.990;7.370;2023-11-19T11:31:52;16.00;89.70
22379;DHT22;11357;49.990;7.370;2023-11-19T11:34:54;16.00;90.00
22379;DHT22;11357;49.990;7.370;2023-11-19T11:37:37;16.00;89.90
22379;DHT22;11357;49.990;7.370;2023-11-19T11:40:03;16.10;89.90
22379;DHT22;11357;49.990;7.370;2023-11-19T11:42:39;16.10;89.70
22379;DHT22;11357;49.990;7.370;2023-11-19T11:45:06;16.10;89.90
22379;DHT22;11357;49.990;7.370;2023-11-19T11:50:18;16.20;90.00
22379;DHT22;11357;49.990;7.370;2023-11-19T11:57:56;16.40;88.00
22379;DHT22;11357;49.990;7.370;2023-11-19T12:03:00;16.40;87.80
22379;DHT22;11357;49.990;7.370;2023-11-19T12:05:27;16.40;87.20
22379;DHT22;11357;49.990;7.370;2023-11-19T12:07:56;16.40;86.60
22379;DHT22;11357;49.990;7.370;2023-11-19T12:10:24;16.50;86.70
22379;DHT22;11357;49.990;7.370;2023-11-19T12:12:52;16.60;86.70
22379;DHT22;11357;49.990;7.370;2023-11-19T12:15:18;16.60;86.60
22379;DHT22;11357;49.990;7.370;2023-11-19T12:17:49;16.70;86.00
22379;DHT22;11357;49.990;7.370;2023-11-19T12:20:18;16.80;86.00
22379;DHT22;11357;49.990;7.370;2023-11-19T12:22:45;16.70;85.60
22379;DHT22;11357;49.990;7.370;2023-11-19T12:25:13;16.80;85.60
22379;DHT22;11357;49.990;7.370;2023-11-19T12:27:49;16.90;85.50
22379;DHT22;11357;49.990;7.370;2023-11-19T12:30:25;16.90;85.50
22379;DHT22;11357;49.990;7.370;2023-11-19T12:32:51;16.90;84.90
22379;DHT22;11357;49.990;7.370;2023-11-19T12:35:19;16.90;84.70
22379;DHT22;11357;49.990;7.370;2023-11-19T12:37:49;16.90;84.20
22379;DHT22;11357;49.990;7.370;2023-11-19T12:40:25;16.80;83.20
22379;DHT22;11357;49.990;7.370;2023-11-19T12:42:54;16.70;83.50
22379;DHT22;11357;49.990;7.370;2023-11-19T12:45:20;16.70;83.80
22379;DHT22;11357;49.990;7.370;2023-11-19T12:47:47;16.70;83.70
22379;DHT22;11357;49.990;7.370;2023-11-19T12:50:14;16.70;83.90
22379;DHT22;11357;49.990;7.370;2023-11-19T12:52:41;16.60;83.60
22379;DHT22;11357;49.990;7.370;2023-11-19T12:55:27;16.60;84.00
22379;DHT22;11357;49.990;7.370;2023-11-19T12:57:53;16.50;84.10
22379;DHT22;11357;49.990;7.370;2023-11-19T13:00:22;16.40;84.00
22379;DHT22;11357;49.990;7.370;2023-11-19T13:02:51;16.40;84.10
22379;DHT22;11357;49.990;7.370;2023-11-19T13:08:07;16.30;83.80
22379;DHT22;11357;49.990;7.370;2023-11-19T13:10:55;16.20;83.70
22379;DHT22;11357;49.990;7.370;2023-11-19T13:13:20;16.20;83.70
22379;DHT22;11357;49.990;7.370;2023-11-19T13:15:46;16.20;83.90
22379;DHT22;11357;49.990;7.370;2023-11-19T13:18:12;16.10;83.90
22379;DHT22;11357;49.990;7.370;2023-11-19T13:20:41;16.10;84.10
22379;DHT22;11357;49.990;7.370;2023-11-19T13:23:07;16.10;84.00
22379;DHT22;11357;49.990;7.370;2023-11-19T13:25:33;16.20;84.10
22379;DHT22;11357;49.990;7.370;2023-11-19T13:27:59;16.20;84.00
22379;DHT22;11357;49.990;7.370;2023-11-19T13:30:25;16.20;83.80
22379;DHT22;11357;49.990;7.370;2023-11-19T13:32:51;16.20;83.60
22379;DHT22;11357;49.990;7.370;2023-11-19T13:35:18;16.20;83.70
22379;DHT22;11357;49.990;7.370;2023-11-19T13:37:45;16.10;83.60
22379;DHT22;11357;49.990;7.370;2023-11-19T13:40:11;16.10;83.60
22379;DHT22;11357;49.990;7.370;2023-11-19T13:42:42;16.10;83.50
22379;DHT22;11357;49.990;7.370;2023-11-19T13:45:12;16.00;83.20
22379;DHT22;11357;49.990;7.370;2023-11-19T13:47:45;15.90;82.90
22379;DHT22;11357;49.990;7.370;2023-11-19T13:50:13;16.00;83.20
22379;DHT22;11357;49.990;7.370;2023-11-19T13:52:39;16.00;83.00
22379;DHT22;11357;49.990;7.370;2023-11-19T13:55:09;16.00;83.70
22379;DHT22;11357;49.990;7.370;2023-11-19T13:57:36;16.10;83.00
22379;DHT22;11357;49.990;7.370;2023-11-19T14:00:09;16.20;83.10
22379;DHT22;11357;49.990;7.370;2023-11-19T14:02:41;16.20;82.70
22379;DHT22;11357;49.990;7.370;2023-11-19T14:05:08;16.20;82.70
22379;DHT22;11357;49.990;7.370;2023-11-19T14:07:34;16.10;82.70
22379;DHT22;11357;49.990;7.370;2023-11-19T14:10:00;16.10;82.70
22379;DHT22;11357;49.990;7.370;2023-11-19T14:12:26;16.10;82.70
22379;DHT22;11357;49.990;7.370;2023-11-19T14:14:52;16.00;82.70
22379;DHT22;11357;49.990;7.370;2023-11-19T14:17:17;16.00;82.90
22379;DHT22;11357;49.990;7.370;2023-11-19T14:19:44;16.00;83.20
22379;DHT22;11357;49.990;7.370;2023-11-19T14:22:10;15.90;83.20
22379;DHT22;11357;49.990;7.370;2023-11-19T14:24:37;15.90;83.30
22379;DHT22;11357;49.990;7.370;2023-11-19T14:27:02;16.00;83.20
22379;DHT22;11357;49.990;7.370;2023-11-19T14:29:28;15.90;83.60
22379;DHT22;11357;49.990;7.370;2023-11-19T14:31:55;15.90;82.90
22379;DHT22;11357;49.990;7.370;2023-11-19T14:34:21;15.90;83.10
22379;DHT22;11357;49.990;7.370;2023-11-19T14:36:47;15.90;83.20
22379;DHT22;11357;49.990;7.370;2023-11-19T14:39:13;15.90;83.30
22379;DHT22;11357;49.990;7.370;2023-11-19T14:41:39;15.90;83.20
22379;DHT22;11357;49.990;7.370;2023-11-19T14:44:05;15.80;83.20
22379;DHT22;11357;49.990;7.370;2023-11-19T14:46:31;15.80;83.50
22379;DHT22;11357;49.990;7.370;2023-11-19T14:48:57;15.70;83.50
22379;DHT22;11357;49.990;7.370;2023-11-19T14:51:22;15.70;83.60
22379;DHT22;11357;49.990;7.370;2023-11-19T14:53:48;15.70;83.70
22379;DHT22;11357;49.990;7.370;2023-11-19T14:56:14;15.80;83.70
22379;DHT22;11357;49.990;7.370;2023-11-19T14:58:40;15.80;83.70
22379;DHT22;11357;49.990;7.370;2023-11-19T15:01:06;15.80;83.70
22379;DHT22;11357;49.990;7.370;2023-11-19T15:03:33;15.80;83.80
22379;DHT22;11357;49.990;7.370;2023-11-19T15:05:58;15.80;83.90
22379;DHT22;11357;49.990;7.370;2023-11-19T15:08:25;15.70;83.50
22379;DHT22;11357;49.990;7.370;2023-11-19T15:10:50;15.60;83.50
22379;DHT22;11357;49.990;7.370;2023-11-19T15:13:16;15.60;83.60
22379;DHT22;11357;49.990;7.370;2023-11-19T15:15:42;15.50;83.60
22379;DHT22;11357;49.990;7.370;2023-11-19T15:18:08;15.50;83.50
22379;DHT22;11357;49.990;7.370;2023-11-19T15:20:35;15.40;83.30
22379;DHT22;11357;49.990;7.370;2023-11-19T15:23:01;15.30;83.10
22379;DHT22;11357;49.990;7.370;2023-11-19T15:25:27;15.30;82.80
22379;DHT22;11357;49.990;7.370;2023-11-19T15:27:53;15.10;82.60
22379;DHT22;11357;49.990;7.370;2023-11-19T15:30:19;15.10;82.60
22379;DHT22;11357;49.990;7.370;2023-11-19T15:32:44;15.10;82.60
22379;DHT22;11357;49.990;7.370;2023-11-19T15:35:10;15.00;82.60
22379;DHT22;11357;49.990;7.370;2023-11-19T15:37:37;15.00;82.40
22379;DHT22;11357;49.990;7.370;2023-11-19T15:40:06;14.90;82.50
22379;DHT22;11357;49.990;7.370;2023-11-19T15:42:34;14.80;82.30
22379;DHT22;11357;49.990;7.370;2023-11-19T15:44:59;14.80;82.50
22379;DHT22;11357;49.990;7.370;2023-11-19T15:47:25;14.70;82.50
22379;DHT22;11357;49.990;7.370;2023-11-19T15:49:51;14.60;82.60
22379;DHT22;11357;49.990;7.370;2023-11-19T15:52:16;14.50;82.50